Bagdad, Arizona
Current Conditions -  °F | °C
As of 3:53 AM on Thursday 23 Oct 2014 (Local Time) from KPRC Reporting Station
Clear Clear  
Wind Chill:   Ceiling: Unl
Heat Index:   Visibility: 10mi
Dew Point:   Wind: 7mph
Humidity: 66%   Direction: 190°S
Pressure: 30.21"   Gusts: NA
Location:  34.58°N, 113.17°W
Report Text: KPRC 231053Z AUTO 19006KT 10SM CLR 08/02 A3021 RMK AO2 SLP170 T00830022
Loading
Personal Weather Stations






























Interactive Weather Map
Tropical Storm Tracking
New forecast layout! Learn more

10-Day Weather Forecast

Advertisements
Track Severe Weather on mobile